sensor_id;sensor_type;location;lat;lon;timestamp;P1;durP1;ratioP1;P2;durP2;ratioP2
79371;SDS011;68914;51.262;6.802;2023-04-03T00:00:11;12.32;;;5.38;;
79371;SDS011;68914;51.262;6.802;2023-04-03T00:01:13;13.98;;;5.88;;
79371;SDS011;68914;51.262;6.802;2023-04-03T00:02:14;12.43;;;6.03;;
79371;SDS011;68914;51.262;6.802;2023-04-03T00:03:15;14.43;;;5.80;;
79371;SDS011;68914;51.262;6.802;2023-04-03T00:04:17;12.82;;;5.70;;
79371;SDS011;68914;51.262;6.802;2023-04-03T00:05:17;12.17;;;5.77;;
79371;SDS011;68914;51.262;6.802;2023-04-03T00:06:18;13.02;;;5.60;;
79371;SDS011;68914;51.262;6.802;2023-04-03T00:07:19;12.77;;;6.13;;
79371;SDS011;68914;51.262;6.802;2023-04-03T00:08:20;14.85;;;6.00;;
79371;SDS011;68914;51.262;6.802;2023-04-03T00:09:20;13.80;;;5.85;;
79371;SDS011;68914;51.262;6.802;2023-04-03T00:10:21;14.53;;;6.07;;
79371;SDS011;68914;51.262;6.802;2023-04-03T00:11:21;12.45;;;5.78;;
79371;SDS011;68914;51.262;6.802;2023-04-03T00:12:22;11.13;;;5.50;;
79371;SDS011;68914;51.262;6.802;2023-04-03T00:13:23;11.07;;;5.43;;
79371;SDS011;68914;51.262;6.802;2023-04-03T00:14:24;12.48;;;5.80;;
79371;SDS011;68914;51.262;6.802;2023-04-03T00:15:25;11.30;;;5.70;;
79371;SDS011;68914;51.262;6.802;2023-04-03T00:16:25;11.65;;;5.95;;
79371;SDS011;68914;51.262;6.802;2023-04-03T00:17:26;10.90;;;5.53;;
79371;SDS011;68914;51.262;6.802;2023-04-03T00:18:26;14.20;;;6.10;;
79371;SDS011;68914;51.262;6.802;2023-04-03T00:19:27;12.23;;;6.03;;
79371;SDS011;68914;51.262;6.802;2023-04-03T00:20:28;13.55;;;6.25;;
79371;SDS011;68914;51.262;6.802;2023-04-03T00:21:28;13.30;;;6.10;;
79371;SDS011;68914;51.262;6.802;2023-04-03T00:22:29;15.60;;;6.57;;
79371;SDS011;68914;51.262;6.802;2023-04-03T00:23:30;13.07;;;6.65;;
79371;SDS011;68914;51.262;6.802;2023-04-03T00:24:31;12.73;;;6.03;;
79371;SDS011;68914;51.262;6.802;2023-04-03T00:25:32;12.57;;;6.27;;
79371;SDS011;68914;51.262;6.802;2023-04-03T00:26:33;12.80;;;5.95;;
79371;SDS011;68914;51.262;6.802;2023-04-03T00:27:35;11.35;;;5.97;;
79371;SDS011;68914;51.262;6.802;2023-04-03T00:28:37;12.00;;;5.80;;
79371;SDS011;68914;51.262;6.802;2023-04-03T00:29:37;13.03;;;6.33;;
79371;SDS011;68914;51.262;6.802;2023-04-03T00:30:38;10.77;;;5.60;;
79371;SDS011;68914;51.262;6.802;2023-04-03T00:31:39;14.60;;;6.03;;
79371;SDS011;68914;51.262;6.802;2023-04-03T00:32:40;13.82;;;6.00;;
79371;SDS011;68914;51.262;6.802;2023-04-03T00:33:41;12.40;;;6.40;;
79371;SDS011;68914;51.262;6.802;2023-04-03T00:34:42;13.50;;;6.03;;
79371;SDS011;68914;51.262;6.802;2023-04-03T00:35:42;12.80;;;6.20;;
79371;SDS011;68914;51.262;6.802;2023-04-03T00:36:43;11.52;;;5.75;;
79371;SDS011;68914;51.262;6.802;2023-04-03T00:37:44;12.30;;;5.80;;
79371;SDS011;68914;51.262;6.802;2023-04-03T00:38:46;13.10;;;6.00;;
79371;SDS011;68914;51.262;6.802;2023-04-03T00:39:46;12.05;;;6.05;;
79371;SDS011;68914;51.262;6.802;2023-04-03T00:40:47;11.70;;;5.90;;
79371;SDS011;68914;51.262;6.802;2023-04-03T00:41:49;12.48;;;6.22;;
79371;SDS011;68914;51.262;6.802;2023-04-03T00:42:57;12.52;;;5.78;;
79371;SDS011;68914;51.262;6.802;2023-04-03T00:43:59;14.80;;;6.05;;
79371;SDS011;68914;51.262;6.802;2023-04-03T00:46:01;13.30;;;6.28;;
79371;SDS011;68914;51.262;6.802;2023-04-03T00:47:02;14.60;;;6.60;;
79371;SDS011;68914;51.262;6.802;2023-04-03T00:48:06;12.57;;;6.50;;
79371;SDS011;68914;51.262;6.802;2023-04-03T00:49:11;13.20;;;6.13;;
79371;SDS011;68914;51.262;6.802;2023-04-03T00:50:11;11.07;;;5.93;;
79371;SDS011;68914;51.262;6.802;2023-04-03T00:51:17;12.27;;;6.30;;
79371;SDS011;68914;51.262;6.802;2023-04-03T00:52:25;13.07;;;6.00;;
79371;SDS011;68914;51.262;6.802;2023-04-03T00:53:30;11.85;;;5.53;;
79371;SDS011;68914;51.262;6.802;2023-04-03T00:54:33;12.03;;;6.27;;
79371;SDS011;68914;51.262;6.802;2023-04-03T00:55:37;11.68;;;5.78;;
79371;SDS011;68914;51.262;6.802;2023-04-03T00:56:39;15.20;;;6.57;;
79371;SDS011;68914;51.262;6.802;2023-04-03T00:57:40;14.77;;;6.50;;
79371;SDS011;68914;51.262;6.802;2023-04-03T00:59:04;14.00;;;6.40;;
79371;SDS011;68914;51.262;6.802;2023-04-03T01:00:23;13.23;;;6.03;;
79371;SDS011;68914;51.262;6.802;2023-04-03T01:01:26;15.25;;;6.60;;
79371;SDS011;68914;51.262;6.802;2023-04-03T01:02:27;13.88;;;6.55;;
79371;SDS011;68914;51.262;6.802;2023-04-03T01:03:28;13.77;;;6.73;;
79371;SDS011;68914;51.262;6.802;2023-04-03T01:04:32;12.52;;;6.60;;
79371;SDS011;68914;51.262;6.802;2023-04-03T01:05:35;14.40;;;6.90;;
79371;SDS011;68914;51.262;6.802;2023-04-03T01:06:36;14.82;;;7.13;;
79371;SDS011;68914;51.262;6.802;2023-04-03T01:07:40;13.52;;;6.60;;
79371;SDS011;68914;51.262;6.802;2023-04-03T01:08:41;12.73;;;6.43;;
79371;SDS011;68914;51.262;6.802;2023-04-03T01:09:44;15.43;;;6.93;;
79371;SDS011;68914;51.262;6.802;2023-04-03T01:10:48;13.43;;;6.38;;
79371;SDS011;68914;51.262;6.802;2023-04-03T01:11:49;12.90;;;6.47;;
79371;SDS011;68914;51.262;6.802;2023-04-03T01:12:51;13.38;;;6.72;;
79371;SDS011;68914;51.262;6.802;2023-04-03T01:13:52;14.18;;;7.18;;
79371;SDS011;68914;51.262;6.802;2023-04-03T01:14:54;14.15;;;6.50;;
79371;SDS011;68914;51.262;6.802;2023-04-03T01:15:56;14.07;;;6.67;;
79371;SDS011;68914;51.262;6.802;2023-04-03T01:17:00;14.10;;;6.97;;
79371;SDS011;68914;51.262;6.802;2023-04-03T01:18:00;15.27;;;7.28;;
79371;SDS011;68914;51.262;6.802;2023-04-03T01:19:02;13.50;;;7.38;;
79371;SDS011;68914;51.262;6.802;2023-04-03T01:21:36;14.02;;;6.50;;
79371;SDS011;68914;51.262;6.802;2023-04-03T01:24:27;13.60;;;6.80;;
79371;SDS011;68914;51.262;6.802;2023-04-03T01:25:45;14.48;;;6.75;;
79371;SDS011;68914;51.262;6.802;2023-04-03T01:26:51;13.25;;;6.72;;
79371;SDS011;68914;51.262;6.802;2023-04-03T01:27:52;16.27;;;6.97;;
79371;SDS011;68914;51.262;6.802;2023-04-03T01:28:53;15.65;;;7.13;;
79371;SDS011;68914;51.262;6.802;2023-04-03T01:29:55;14.67;;;6.63;;
79371;SDS011;68914;51.262;6.802;2023-04-03T01:32:10;13.85;;;6.90;;
79371;SDS011;68914;51.262;6.802;2023-04-03T01:33:11;13.20;;;6.53;;
79371;SDS011;68914;51.262;6.802;2023-04-03T01:34:12;13.60;;;6.83;;
79371;SDS011;68914;51.262;6.802;2023-04-03T01:35:12;15.85;;;7.30;;
79371;SDS011;68914;51.262;6.802;2023-04-03T01:36:17;16.02;;;7.70;;
79371;SDS011;68914;51.262;6.802;2023-04-03T01:37:22;15.18;;;6.88;;
79371;SDS011;68914;51.262;6.802;2023-04-03T01:38:22;14.87;;;6.97;;
79371;SDS011;68914;51.262;6.802;2023-04-03T01:39:23;14.38;;;7.28;;
79371;SDS011;68914;51.262;6.802;2023-04-03T01:40:25;14.75;;;7.07;;
79371;SDS011;68914;51.262;6.802;2023-04-03T01:41:26;15.00;;;7.57;;
79371;SDS011;68914;51.262;6.802;2023-04-03T01:42:33;14.98;;;6.95;;
79371;SDS011;68914;51.262;6.802;2023-04-03T01:43:34;12.87;;;6.97;;
79371;SDS011;68914;51.262;6.802;2023-04-03T01:44:34;13.38;;;6.88;;
79371;SDS011;68914;51.262;6.802;2023-04-03T01:45:35;14.20;;;6.97;;
79371;SDS011;68914;51.262;6.802;2023-04-03T01:46:36;14.75;;;6.90;;
79371;SDS011;68914;51.262;6.802;2023-04-03T01:47:37;16.25;;;7.13;;
79371;SDS011;68914;51.262;6.802;2023-04-03T01:48:39;15.25;;;7.40;;
79371;SDS011;68914;51.262;6.802;2023-04-03T01:49:40;15.67;;;7.10;;
79371;SDS011;68914;51.262;6.802;2023-04-03T01:50:40;13.80;;;7.38;;
79371;SDS011;68914;51.262;6.802;2023-04-03T01:51:42;13.68;;;6.60;;
79371;SDS011;68914;51.262;6.802;2023-04-03T01:52:42;15.03;;;7.33;;
79371;SDS011;68914;51.262;6.802;2023-04-03T01:53:43;13.23;;;6.97;;
79371;SDS011;68914;51.262;6.802;2023-04-03T01:54:44;13.70;;;7.10;;
79371;SDS011;68914;51.262;6.802;2023-04-03T01:55:44;13.77;;;7.05;;
79371;SDS011;68914;51.262;6.802;2023-04-03T01:56:45;13.50;;;6.97;;
79371;SDS011;68914;51.262;6.802;2023-04-03T01:57:46;14.32;;;7.07;;
79371;SDS011;68914;51.262;6.802;2023-04-03T01:58:47;14.77;;;7.30;;
79371;SDS011;68914;51.262;6.802;2023-04-03T01:59:48;13.68;;;6.88;;
79371;SDS011;68914;51.262;6.802;2023-04-03T02:00:48;13.33;;;6.93;;
79371;SDS011;68914;51.262;6.802;2023-04-03T02:01:49;12.93;;;6.22;;
79371;SDS011;68914;51.262;6.802;2023-04-03T02:02:50;16.50;;;7.10;;
79371;SDS011;68914;51.262;6.802;2023-04-03T02:03:50;13.30;;;7.05;;
79371;SDS011;68914;51.262;6.802;2023-04-03T02:04:51;16.93;;;7.17;;
79371;SDS011;68914;51.262;6.802;2023-04-03T02:05:52;14.95;;;6.75;;
79371;SDS011;68914;51.262;6.802;2023-04-03T02:06:52;15.50;;;6.83;;
79371;SDS011;68914;51.262;6.802;2023-04-03T02:07:53;14.70;;;7.00;;
79371;SDS011;68914;51.262;6.802;2023-04-03T02:08:53;12.70;;;6.77;;
79371;SDS011;68914;51.262;6.802;2023-04-03T02:09:54;13.20;;;6.78;;
79371;SDS011;68914;51.262;6.802;2023-04-03T02:10:55;12.50;;;6.75;;
79371;SDS011;68914;51.262;6.802;2023-04-03T02:11:55;13.70;;;6.60;;
79371;SDS011;68914;51.262;6.802;2023-04-03T02:12:56;13.90;;;6.60;;
79371;SDS011;68914;51.262;6.802;2023-04-03T02:13:57;15.33;;;6.97;;
79371;SDS011;68914;51.262;6.802;2023-04-03T02:14:58;15.70;;;7.05;;
79371;SDS011;68914;51.262;6.802;2023-04-03T02:16:05;13.68;;;6.47;;
79371;SDS011;68914;51.262;6.802;2023-04-03T02:17:07;15.82;;;6.80;;
79371;SDS011;68914;51.262;6.802;2023-04-03T02:18:08;12.73;;;6.38;;
79371;SDS011;68914;51.262;6.802;2023-04-03T02:19:09;14.70;;;6.63;;
79371;SDS011;68914;51.262;6.802;2023-04-03T02:20:10;13.55;;;6.65;;
79371;SDS011;68914;51.262;6.802;2023-04-03T02:21:11;13.55;;;6.47;;
79371;SDS011;68914;51.262;6.802;2023-04-03T02:22:12;14.07;;;7.10;;
79371;SDS011;68914;51.262;6.802;2023-04-03T02:23:12;14.13;;;6.80;;
79371;SDS011;68914;51.262;6.802;2023-04-03T02:24:13;13.63;;;6.83;;
79371;SDS011;68914;51.262;6.802;2023-04-03T02:25:13;15.00;;;6.97;;
79371;SDS011;68914;51.262;6.802;2023-04-03T02:26:15;15.27;;;6.97;;
79371;SDS011;68914;51.262;6.802;2023-04-03T02:27:19;16.45;;;6.65;;
79371;SDS011;68914;51.262;6.802;2023-04-03T02:28:19;13.30;;;6.75;;
79371;SDS011;68914;51.262;6.802;2023-04-03T02:29:20;13.20;;;7.20;;
79371;SDS011;68914;51.262;6.802;2023-04-03T02:30:21;14.57;;;6.80;;
79371;SDS011;68914;51.262;6.802;2023-04-03T02:31:23;14.55;;;6.85;;
79371;SDS011;68914;51.262;6.802;2023-04-03T02:32:24;12.52;;;6.47;;
79371;SDS011;68914;51.262;6.802;2023-04-03T02:33:25;13.87;;;6.87;;
79371;SDS011;68914;51.262;6.802;2023-04-03T02:34:25;15.85;;;6.80;;
79371;SDS011;68914;51.262;6.802;2023-04-03T02:35:27;15.65;;;7.85;;
79371;SDS011;68914;51.262;6.802;2023-04-03T02:36:30;14.68;;;6.93;;
79371;SDS011;68914;51.262;6.802;2023-04-03T02:37:33;14.73;;;6.88;;
79371;SDS011;68914;51.262;6.802;2023-04-03T02:38:34;13.87;;;7.17;;
79371;SDS011;68914;51.262;6.802;2023-04-03T02:39:35;14.27;;;6.93;;
79371;SDS011;68914;51.262;6.802;2023-04-03T02:40:36;14.48;;;6.90;;
79371;SDS011;68914;51.262;6.802;2023-04-03T02:41:36;13.97;;;7.17;;
79371;SDS011;68914;51.262;6.802;2023-04-03T02:42:42;14.45;;;7.18;;
79371;SDS011;68914;51.262;6.802;2023-04-03T02:43:43;14.32;;;7.10;;
79371;SDS011;68914;51.262;6.802;2023-04-03T02:44:44;16.63;;;7.23;;
79371;SDS011;68914;51.262;6.802;2023-04-03T02:45:45;13.25;;;7.22;;
79371;SDS011;68914;51.262;6.802;2023-04-03T02:46:45;14.10;;;6.47;;
79371;SDS011;68914;51.262;6.802;2023-04-03T02:47:46;16.38;;;7.20;;
79371;SDS011;68914;51.262;6.802;2023-04-03T02:48:47;15.13;;;7.03;;
79371;SDS011;68914;51.262;6.802;2023-04-03T02:49:48;15.57;;;7.20;;
79371;SDS011;68914;51.262;6.802;2023-04-03T02:50:49;13.80;;;6.80;;
79371;SDS011;68914;51.262;6.802;2023-04-03T02:51:50;15.65;;;7.07;;
79371;SDS011;68914;51.262;6.802;2023-04-03T02:52:51;13.55;;;7.05;;
79371;SDS011;68914;51.262;6.802;2023-04-03T02:53:52;14.07;;;6.60;;
79371;SDS011;68914;51.262;6.802;2023-04-03T02:54:56;12.60;;;6.50;;
79371;SDS011;68914;51.262;6.802;2023-04-03T02:55:56;14.75;;;6.93;;
79371;SDS011;68914;51.262;6.802;2023-04-03T02:56:57;13.93;;;6.80;;
79371;SDS011;68914;51.262;6.802;2023-04-03T02:57:58;16.67;;;7.25;;
79371;SDS011;68914;51.262;6.802;2023-04-03T02:58:59;14.13;;;6.90;;
79371;SDS011;68914;51.262;6.802;2023-04-03T02:59:59;15.50;;;7.20;;
79371;SDS011;68914;51.262;6.802;2023-04-03T03:01:00;14.13;;;7.10;;
79371;SDS011;68914;51.262;6.802;2023-04-03T03:02:00;16.30;;;6.93;;
79371;SDS011;68914;51.262;6.802;2023-04-03T03:03:01;14.15;;;7.00;;
79371;SDS011;68914;51.262;6.802;2023-04-03T03:04:02;15.40;;;7.33;;
79371;SDS011;68914;51.262;6.802;2023-04-03T03:05:03;13.93;;;7.05;;
79371;SDS011;68914;51.262;6.802;2023-04-03T03:06:04;15.43;;;7.10;;
79371;SDS011;68914;51.262;6.802;2023-04-03T03:07:07;14.02;;;7.07;;
79371;SDS011;68914;51.262;6.802;2023-04-03T03:08:07;15.00;;;7.00;;
79371;SDS011;68914;51.262;6.802;2023-04-03T03:09:08;16.97;;;7.23;;
79371;SDS011;68914;51.262;6.802;2023-04-03T03:10:09;13.77;;;6.80;;
79371;SDS011;68914;51.262;6.802;2023-04-03T03:11:10;14.75;;;6.88;;
79371;SDS011;68914;51.262;6.802;2023-04-03T03:12:11;14.13;;;6.97;;
79371;SDS011;68914;51.262;6.802;2023-04-03T03:13:11;15.53;;;6.93;;
79371;SDS011;68914;51.262;6.802;2023-04-03T03:14:12;15.52;;;6.97;;
79371;SDS011;68914;51.262;6.802;2023-04-03T03:15:12;14.77;;;6.73;;
79371;SDS011;68914;51.262;6.802;2023-04-03T03:16:13;13.00;;;5.75;;
79371;SDS011;68914;51.262;6.802;2023-04-03T03:17:13;15.17;;;7.50;;
79371;SDS011;68914;51.262;6.802;2023-04-03T03:18:14;15.15;;;6.65;;
79371;SDS011;68914;51.262;6.802;2023-04-03T03:19:15;14.13;;;6.57;;
79371;SDS011;68914;51.262;6.802;2023-04-03T03:20:16;16.27;;;6.65;;
79371;SDS011;68914;51.262;6.802;2023-04-03T03:21:16;15.52;;;6.97;;
79371;SDS011;68914;51.262;6.802;2023-04-03T03:22:18;14.97;;;6.70;;
79371;SDS011;68914;51.262;6.802;2023-04-03T03:23:19;13.60;;;6.57;;
79371;SDS011;68914;51.262;6.802;2023-04-03T03:24:20;13.85;;;6.70;;
79371;SDS011;68914;51.262;6.802;2023-04-03T03:25:21;14.68;;;6.97;;
79371;SDS011;68914;51.262;6.802;2023-04-03T03:26:22;15.60;;;6.55;;
79371;SDS011;68914;51.262;6.802;2023-04-03T03:27:23;14.77;;;6.87;;
79371;SDS011;68914;51.262;6.802;2023-04-03T03:28:24;12.88;;;5.60;;
79371;SDS011;68914;51.262;6.802;2023-04-03T03:29:25;13.82;;;6.53;;
79371;SDS011;68914;51.262;6.802;2023-04-03T03:30:26;14.07;;;6.33;;
79371;SDS011;68914;51.262;6.802;2023-04-03T03:31:26;14.18;;;6.53;;
79371;SDS011;68914;51.262;6.802;2023-04-03T03:32:27;14.63;;;6.57;;
79371;SDS011;68914;51.262;6.802;2023-04-03T03:33:28;12.13;;;6.18;;
79371;SDS011;68914;51.262;6.802;2023-04-03T03:34:29;14.32;;;6.25;;
79371;SDS011;68914;51.262;6.802;2023-04-03T03:35:29;12.87;;;5.67;;
79371;SDS011;68914;51.262;6.802;2023-04-03T03:36:30;14.38;;;6.45;;
79371;SDS011;68914;51.262;6.802;2023-04-03T03:37:31;14.57;;;6.50;;
79371;SDS011;68914;51.262;6.802;2023-04-03T03:38:32;14.57;;;6.00;;
79371;SDS011;68914;51.262;6.802;2023-04-03T03:39:34;14.27;;;6.13;;
79371;SDS011;68914;51.262;6.802;2023-04-03T03:40:35;13.00;;;6.30;;
79371;SDS011;68914;51.262;6.802;2023-04-03T03:41:36;13.20;;;5.88;;
79371;SDS011;68914;51.262;6.802;2023-04-03T03:42:38;10.93;;;5.22;;
79371;SDS011;68914;51.262;6.802;2023-04-03T03:43:39;12.68;;;5.97;;
79371;SDS011;68914;51.262;6.802;2023-04-03T03:44:41;12.98;;;5.75;;
79371;SDS011;68914;51.262;6.802;2023-04-03T03:45:42;12.87;;;5.83;;
79371;SDS011;68914;51.262;6.802;2023-04-03T03:46:42;13.65;;;6.00;;
79371;SDS011;68914;51.262;6.802;2023-04-03T03:47:43;12.27;;;5.45;;
79371;SDS011;68914;51.262;6.802;2023-04-03T03:48:44;12.10;;;5.37;;
79371;SDS011;68914;51.262;6.802;2023-04-03T03:49:44;12.02;;;5.60;;
79371;SDS011;68914;51.262;6.802;2023-04-03T03:50:45;13.30;;;6.40;;
79371;SDS011;68914;51.262;6.802;2023-04-03T03:51:46;13.32;;;5.20;;
79371;SDS011;68914;51.262;6.802;2023-04-03T03:52:47;13.05;;;5.68;;
79371;SDS011;68914;51.262;6.802;2023-04-03T03:53:48;11.93;;;5.63;;
79371;SDS011;68914;51.262;6.802;2023-04-03T03:54:51;12.25;;;5.10;;
79371;SDS011;68914;51.262;6.802;2023-04-03T03:55:52;12.48;;;5.43;;
79371;SDS011;68914;51.262;6.802;2023-04-03T03:56:55;11.32;;;5.07;;
79371;SDS011;68914;51.262;6.802;2023-04-03T03:57:57;12.85;;;4.85;;
79371;SDS011;68914;51.262;6.802;2023-04-03T03:58:59;12.23;;;5.50;;
79371;SDS011;68914;51.262;6.802;2023-04-03T03:59:59;12.07;;;5.22;;
79371;SDS011;68914;51.262;6.802;2023-04-03T04:01:01;10.77;;;4.93;;
79371;SDS011;68914;51.262;6.802;2023-04-03T04:02:06;11.38;;;4.72;;
79371;SDS011;68914;51.262;6.802;2023-04-03T04:03:07;11.10;;;4.43;;
79371;SDS011;68914;51.262;6.802;2023-04-03T04:04:08;11.93;;;4.93;;
79371;SDS011;68914;51.262;6.802;2023-04-03T04:05:08;10.67;;;4.70;;
79371;SDS011;68914;51.262;6.802;2023-04-03T04:06:09;11.00;;;4.63;;
79371;SDS011;68914;51.262;6.802;2023-04-03T04:07:10;10.43;;;4.50;;
79371;SDS011;68914;51.262;6.802;2023-04-03T04:08:11;10.02;;;3.92;;
79371;SDS011;68914;51.262;6.802;2023-04-03T04:09:11;11.90;;;4.53;;
79371;SDS011;68914;51.262;6.802;2023-04-03T04:10:12;11.55;;;4.47;;
79371;SDS011;68914;51.262;6.802;2023-04-03T04:11:14;13.00;;;4.15;;
79371;SDS011;68914;51.262;6.802;2023-04-03T04:12:15;10.40;;;4.03;;
79371;SDS011;68914;51.262;6.802;2023-04-03T04:13:16;9.65;;;4.38;;
79371;SDS011;68914;51.262;6.802;2023-04-03T04:14:17;11.97;;;4.10;;
79371;SDS011;68914;51.262;6.802;2023-04-03T04:15:18;9.18;;;4.10;;
79371;SDS011;68914;51.262;6.802;2023-04-03T04:16:18;10.30;;;4.10;;
79371;SDS011;68914;51.262;6.802;2023-04-03T04:17:19;9.20;;;3.87;;
79371;SDS011;68914;51.262;6.802;2023-04-03T04:18:20;11.93;;;4.10;;
79371;SDS011;68914;51.262;6.802;2023-04-03T04:19:23;12.77;;;5.00;;
79371;SDS011;68914;51.262;6.802;2023-04-03T04:20:23;10.65;;;3.92;;
79371;SDS011;68914;51.262;6.802;2023-04-03T04:21:24;9.87;;;3.73;;
79371;SDS011;68914;51.262;6.802;2023-04-03T04:22:26;40.85;;;16.27;;
79371;SDS011;68914;51.262;6.802;2023-04-03T04:23:28;10.38;;;4.32;;
79371;SDS011;68914;51.262;6.802;2023-04-03T04:24:28;9.07;;;3.80;;
79371;SDS011;68914;51.262;6.802;2023-04-03T04:25:30;8.55;;;3.80;;
79371;SDS011;68914;51.262;6.802;2023-04-03T04:26:31;8.20;;;3.30;;
79371;SDS011;68914;51.262;6.802;2023-04-03T04:27:31;9.77;;;3.80;;
79371;SDS011;68914;51.262;6.802;2023-04-03T04:28:32;9.07;;;3.57;;
79371;SDS011;68914;51.262;6.802;2023-04-03T04:29:34;10.10;;;3.58;;
79371;SDS011;68914;51.262;6.802;2023-04-03T04:30:38;11.02;;;4.05;;
79371;SDS011;68914;51.262;6.802;2023-04-03T04:31:39;10.45;;;3.80;;
79371;SDS011;68914;51.262;6.802;2023-04-03T04:32:40;9.53;;;3.60;;
79371;SDS011;68914;51.262;6.802;2023-04-03T04:33:41;9.07;;;3.50;;
79371;SDS011;68914;51.262;6.802;2023-04-03T04:34:43;8.38;;;3.53;;
79371;SDS011;68914;51.262;6.802;2023-04-03T04:35:44;8.40;;;3.30;;
79371;SDS011;68914;51.262;6.802;2023-04-03T04:36:47;8.88;;;3.65;;
79371;SDS011;68914;51.262;6.802;2023-04-03T04:37:48;9.15;;;3.45;;
79371;SDS011;68914;51.262;6.802;2023-04-03T04:38:49;9.27;;;3.45;;
79371;SDS011;68914;51.262;6.802;2023-04-03T04:39:53;10.85;;;4.20;;
79371;SDS011;68914;51.262;6.802;2023-04-03T04:40:54;11.10;;;3.63;;
79371;SDS011;68914;51.262;6.802;2023-04-03T04:41:55;8.68;;;3.55;;
79371;SDS011;68914;51.262;6.802;2023-04-03T04:42:56;9.38;;;3.50;;
79371;SDS011;68914;51.262;6.802;2023-04-03T04:43:57;9.38;;;3.28;;
79371;SDS011;68914;51.262;6.802;2023-04-03T04:44:59;13.40;;;3.80;;
79371;SDS011;68914;51.262;6.802;2023-04-03T04:46:00;9.95;;;4.10;;
79371;SDS011;68914;51.262;6.802;2023-04-03T04:47:02;10.68;;;3.53;;
79371;SDS011;68914;51.262;6.802;2023-04-03T04:48:03;8.03;;;3.13;;
79371;SDS011;68914;51.262;6.802;2023-04-03T04:49:04;10.68;;;3.60;;
79371;SDS011;68914;51.262;6.802;2023-04-03T04:50:05;9.95;;;3.33;;
79371;SDS011;68914;51.262;6.802;2023-04-03T04:51:06;9.10;;;3.30;;
79371;SDS011;68914;51.262;6.802;2023-04-03T04:52:09;10.25;;;3.40;;
79371;SDS011;68914;51.262;6.802;2023-04-03T04:53:10;10.45;;;3.33;;
79371;SDS011;68914;51.262;6.802;2023-04-03T04:54:11;8.73;;;3.20;;
79371;SDS011;68914;51.262;6.802;2023-04-03T04:55:12;8.10;;;3.20;;
79371;SDS011;68914;51.262;6.802;2023-04-03T04:56:13;10.05;;;3.30;;
79371;SDS011;68914;51.262;6.802;2023-04-03T04:57:14;8.13;;;3.00;;
79371;SDS011;68914;51.262;6.802;2023-04-03T04:58:15;8.63;;;3.03;;
79371;SDS011;68914;51.262;6.802;2023-04-03T04:59:16;11.03;;;3.50;;
79371;SDS011;68914;51.262;6.802;2023-04-03T05:00:17;7.93;;;3.00;;
79371;SDS011;68914;51.262;6.802;2023-04-03T05:01:18;8.25;;;3.22;;
79371;SDS011;68914;51.262;6.802;2023-04-03T05:02:27;8.77;;;3.20;;
79371;SDS011;68914;51.262;6.802;2023-04-03T05:03:29;9.10;;;3.37;;
79371;SDS011;68914;51.262;6.802;2023-04-03T05:04:29;10.75;;;3.50;;
79371;SDS011;68914;51.262;6.802;2023-04-03T05:05:37;10.82;;;3.50;;
79371;SDS011;68914;51.262;6.802;2023-04-03T05:06:38;8.02;;;3.20;;
79371;SDS011;68914;51.262;6.802;2023-04-03T05:07:42;8.07;;;2.85;;
79371;SDS011;68914;51.262;6.802;2023-04-03T05:08:43;8.07;;;3.13;;
79371;SDS011;68914;51.262;6.802;2023-04-03T05:09:44;9.95;;;3.17;;
79371;SDS011;68914;51.262;6.802;2023-04-03T05:10:46;9.10;;;3.13;;
79371;SDS011;68914;51.262;6.802;2023-04-03T05:11:48;8.85;;;3.10;;
79371;SDS011;68914;51.262;6.802;2023-04-03T05:12:50;8.90;;;3.23;;
79371;SDS011;68914;51.262;6.802;2023-04-03T05:13:51;9.20;;;3.30;;
79371;SDS011;68914;51.262;6.802;2023-04-03T05:14:52;8.57;;;3.38;;
79371;SDS011;68914;51.262;6.802;2023-04-03T05:15:53;8.50;;;2.80;;
79371;SDS011;68914;51.262;6.802;2023-04-03T05:16:53;9.85;;;3.30;;
79371;SDS011;68914;51.262;6.802;2023-04-03T05:17:56;8.68;;;3.20;;
79371;SDS011;68914;51.262;6.802;2023-04-03T05:18:57;7.37;;;2.97;;
79371;SDS011;68914;51.262;6.802;2023-04-03T05:19:57;8.10;;;3.00;;
79371;SDS011;68914;51.262;6.802;2023-04-03T05:21:00;9.30;;;3.10;;
79371;SDS011;68914;51.262;6.802;2023-04-03T05:22:01;8.13;;;2.63;;
79371;SDS011;68914;51.262;6.802;2023-04-03T05:23:03;7.38;;;2.90;;
79371;SDS011;68914;51.262;6.802;2023-04-03T05:24:04;7.97;;;3.25;;
79371;SDS011;68914;51.262;6.802;2023-04-03T05:25:07;10.85;;;3.20;;
79371;SDS011;68914;51.262;6.802;2023-04-03T05:26:09;9.57;;;3.58;;
79371;SDS011;68914;51.262;6.802;2023-04-03T05:27:10;10.10;;;3.30;;
79371;SDS011;68914;51.262;6.802;2023-04-03T05:28:13;10.98;;;3.50;;
79371;SDS011;68914;51.262;6.802;2023-04-03T05:29:14;9.70;;;3.13;;
79371;SDS011;68914;51.262;6.802;2023-04-03T05:30:16;9.93;;;3.57;;
79371;SDS011;68914;51.262;6.802;2023-04-03T05:31:16;8.65;;;3.33;;
79371;SDS011;68914;51.262;6.802;2023-04-03T05:32:18;10.13;;;3.40;;
79371;SDS011;68914;51.262;6.802;2023-04-03T05:33:22;8.52;;;3.10;;
79371;SDS011;68914;51.262;6.802;2023-04-03T05:34:26;8.98;;;3.58;;
79371;SDS011;68914;51.262;6.802;2023-04-03T05:35:28;9.43;;;3.30;;
79371;SDS011;68914;51.262;6.802;2023-04-03T05:36:32;10.00;;;3.55;;
79371;SDS011;68914;51.262;6.802;2023-04-03T05:37:37;9.93;;;3.58;;
79371;SDS011;68914;51.262;6.802;2023-04-03T05:38:38;10.68;;;3.55;;
79371;SDS011;68914;51.262;6.802;2023-04-03T05:39:39;9.20;;;3.20;;
79371;SDS011;68914;51.262;6.802;2023-04-03T05:40:41;10.45;;;3.60;;
79371;SDS011;68914;51.262;6.802;2023-04-03T05:41:42;9.65;;;3.40;;
79371;SDS011;68914;51.262;6.802;2023-04-03T05:42:43;8.98;;;3.45;;
79371;SDS011;68914;51.262;6.802;2023-04-03T05:43:44;9.57;;;3.40;;
79371;SDS011;68914;51.262;6.802;2023-04-03T05:44:45;8.90;;;3.30;;
79371;SDS011;68914;51.262;6.802;2023-04-03T05:45:47;9.98;;;3.50;;
79371;SDS011;68914;51.262;6.802;2023-04-03T05:46:49;11.75;;;3.40;;
79371;SDS011;68914;51.262;6.802;2023-04-03T05:47:49;9.23;;;3.60;;
79371;SDS011;68914;51.262;6.802;2023-04-03T05:48:50;8.10;;;3.20;;
79371;SDS011;68914;51.262;6.802;2023-04-03T05:49:54;9.77;;;3.90;;
79371;SDS011;68914;51.262;6.802;2023-04-03T05:50:55;9.88;;;3.80;;
79371;SDS011;68914;51.262;6.802;2023-04-03T05:51:58;10.82;;;3.70;;
79371;SDS011;68914;51.262;6.802;2023-04-03T05:53:02;11.57;;;3.47;;
79371;SDS011;68914;51.262;6.802;2023-04-03T05:54:39;7.93;;;3.47;;
79371;SDS011;68914;51.262;6.802;2023-04-03T05:55:55;12.35;;;3.40;;
79371;SDS011;68914;51.262;6.802;2023-04-03T05:56:56;8.53;;;3.30;;
79371;SDS011;68914;51.262;6.802;2023-04-03T05:57:58;9.90;;;3.30;;
79371;SDS011;68914;51.262;6.802;2023-04-03T05:58:58;9.30;;;3.33;;
79371;SDS011;68914;51.262;6.802;2023-04-03T05:59:59;9.75;;;3.35;;
79371;SDS011;68914;51.262;6.802;2023-04-03T06:01:00;8.00;;;3.30;;
79371;SDS011;68914;51.262;6.802;2023-04-03T06:02:01;9.50;;;3.50;;
79371;SDS011;68914;51.262;6.802;2023-04-03T06:03:03;8.00;;;3.20;;
79371;SDS011;68914;51.262;6.802;2023-04-03T06:04:04;13.15;;;4.40;;
79371;SDS011;68914;51.262;6.802;2023-04-03T06:05:05;8.57;;;3.43;;
79371;SDS011;68914;51.262;6.802;2023-04-03T06:06:12;8.90;;;3.15;;
79371;SDS011;68914;51.262;6.802;2023-04-03T06:07:18;10.80;;;3.45;;
79371;SDS011;68914;51.262;6.802;2023-04-03T06:08:23;10.10;;;3.10;;
79371;SDS011;68914;51.262;6.802;2023-04-03T06:09:25;10.18;;;3.13;;
79371;SDS011;68914;51.262;6.802;2023-04-03T06:10:29;11.23;;;3.22;;
79371;SDS011;68914;51.262;6.802;2023-04-03T06:11:30;8.98;;;3.08;;
79371;SDS011;68914;51.262;6.802;2023-04-03T06:12:31;9.37;;;3.20;;
79371;SDS011;68914;51.262;6.802;2023-04-03T06:13:31;9.88;;;3.20;;